Time;durP1;ratioP1;P1;durP2;ratioP2;P2;SDS_P1;SDS_P2;PMS_P1;PMS_P2;Temp;Humidity;BMP_temperature;BMP_pressure;BME280_temperature;BME280_humidity;BME280_pressure;Samples;Min_cycle;Max_cycle;Signal;HPM_P1;HPM_P2
2021/07/10 00:00:18;;;;;;;;;1.00;1.00;;;;;26.04;46.89;98617.81;4939174;28;102596;-83
2021/07/10 00:02:45;;;;;;;;;3.00;1.67;;;;;26.01;46.82;98631.44;4893749;28;105300;-83
2021/07/10 00:05:13;;;;;;;;;1.00;1.00;;;;;26.02;46.76;98627.56;4907750;28;102580;-83
2021/07/10 00:07:42;;;;;;;;;0.33;0.00;;;;;26.02;46.69;98627.56;4917299;28;102305;-83
2021/07/10 00:10:13;;;;;;;;;1.00;1.00;;;;;26.03;46.72;98623.66;4935603;28;103717;-84
2021/07/10 00:12:42;;;;;;;;;1.00;1.00;;;;;26.00;46.75;98624.25;4950490;28;103007;-83
2021/07/10 00:15:13;;;;;;;;;1.00;1.00;;;;;25.96;46.56;98626.81;4938126;28;102303;-83
2021/07/10 00:17:43;;;;;;;;;1.00;1.00;;;;;25.97;46.55;98631.22;4945617;28;102044;-83
2021/07/10 00:20:13;;;;;;;;;0.33;0.33;;;;;25.97;46.49;98630.41;4935856;28;103213;-83
2021/07/10 00:22:42;;;;;;;;;0.00;0.00;;;;;25.93;46.56;98610.78;4952397;28;103069;-83
2021/07/10 00:25:13;;;;;;;;;0.00;0.00;;;;;25.91;46.43;98610.25;4941374;28;102549;-83
2021/07/10 00:27:43;;;;;;;;;2.33;1.33;;;;;25.91;46.40;98629.66;4935117;28;102833;-83
2021/07/10 00:30:12;;;;;;;;;1.00;0.00;;;;;25.91;46.34;98631.59;4946662;28;102892;-84
2021/07/10 00:32:40;;;;;;;;;1.00;1.00;;;;;25.92;46.41;98639.63;4940855;28;103074;-84
2021/07/10 00:35:08;;;;;;;;;1.00;0.33;;;;;25.90;46.44;98643.78;4942955;28;102370;-84
2021/07/10 00:37:35;;;;;;;;;0.00;0.00;;;;;25.87;46.52;98638.88;4943709;28;103141;-83
2021/07/10 00:40:06;;;;;;;;;0.33;0.33;;;;;25.86;46.30;98635.25;4949439;28;102618;-84
2021/07/10 00:42:34;;;;;;;;;0.67;0.67;;;;;25.82;46.40;98633.41;4932897;28;104099;-83
2021/07/10 00:45:01;;;;;;;;;2.00;1.00;;;;;25.83;46.20;98635.06;4943802;28;102485;-83
2021/07/10 00:47:33;;;;;;;;;0.00;0.00;;;;;25.81;46.23;98632.56;4933842;28;104413;-83
2021/07/10 00:50:00;;;;;;;;;0.33;0.33;;;;;25.79;46.30;98643.13;4933601;28;102568;-83
2021/07/10 00:52:28;;;;;;;;;0.33;0.33;;;;;25.74;46.06;98640.44;4941365;28;104057;-84
2021/07/10 00:54:57;;;;;;;;;0.00;0.00;;;;;25.73;46.14;98641.56;4941607;28;102296;-84
2021/07/10 00:57:24;;;;;;;;;0.00;0.00;;;;;25.66;46.52;98657.72;4932934;28;102584;-83
2021/07/10 00:59:51;;;;;;;;;0.00;0.00;;;;;25.68;46.11;98656.31;4937735;28;103694;-83
2021/07/10 01:02:18;;;;;;;;;1.33;0.33;;;;;25.67;46.02;98662.94;4938565;28;104417;-83
2021/07/10 01:04:46;;;;;;;;;1.00;1.00;;;;;25.68;46.17;98661.84;4914238;28;103540;-83
2021/07/10 01:07:13;;;;;;;;;0.00;0.00;;;;;25.62;46.16;98671.31;4922537;28;102376;-83
2021/07/10 01:09:41;;;;;;;;;1.00;1.00;;;;;25.61;46.15;98678.00;4935485;28;102641;-83
2021/07/10 01:12:11;;;;;;;;;0.33;0.33;;;;;25.59;46.26;98685.78;4934473;28;104046;-83
2021/07/10 01:14:40;;;;;;;;;0.67;0.67;;;;;25.57;46.05;98667.81;4933898;28;102233;-83
2021/07/10 01:17:09;;;;;;;;;0.33;0.33;;;;;25.60;45.78;98670.00;4936514;28;102520;-83
2021/07/10 01:19:38;;;;;;;;;0.33;0.33;;;;;25.56;46.05;98663.41;4934964;28;102206;-83
2021/07/10 01:22:08;;;;;;;;;0.33;0.33;;;;;25.52;46.12;98662.31;4926454;28;103916;-83
2021/07/10 01:24:37;;;;;;;;;0.00;0.00;;;;;25.48;46.15;98673.16;4945075;28;102583;-83
2021/07/10 01:27:07;;;;;;;;;1.00;1.00;;;;;25.48;45.93;98664.03;4920813;28;103536;-83
2021/07/10 01:29:36;;;;;;;;;0.00;0.00;;;;;25.43;46.03;98669.63;4928946;28;102751;-83
2021/07/10 01:32:06;;;;;;;;;1.00;1.00;;;;;25.41;45.86;98672.69;4928678;28;103289;-84
2021/07/10 01:34:36;;;;;;;;;2.00;1.00;;;;;25.40;45.97;98676.56;4930024;28;103268;-83
2021/07/10 01:37:03;;;;;;;;;0.33;0.33;;;;;25.39;45.95;98685.19;4929601;28;103204;-83
2021/07/10 01:39:30;;;;;;;;;1.00;1.00;;;;;25.37;45.89;98679.94;4944886;28;103912;-83
2021/07/10 01:41:57;;;;;;;;;0.00;0.00;;;;;25.37;46.02;98673.56;4937788;28;104188;-83
2021/07/10 01:44:25;;;;;;;;;0.00;0.00;;;;;25.34;46.13;98672.22;4925440;28;103098;-83
2021/07/10 01:46:52;;;;;;;;;0.00;0.00;;;;;25.35;46.13;98670.28;4944649;28;102587;-83
2021/07/10 01:49:19;;;;;;;;;0.33;0.33;;;;;25.31;45.85;98668.09;4945017;28;102351;-83
2021/07/10 01:51:46;;;;;;;;;1.00;1.00;;;;;25.30;45.86;98676.72;4933270;28;104086;-83
2021/07/10 01:54:13;;;;;;;;;0.00;0.00;;;;;25.31;45.76;98678.34;4945911;28;102518;-83
2021/07/10 01:56:40;;;;;;;;;1.00;0.00;;;;;25.29;45.77;98680.59;4952504;28;102423;-83
2021/07/10 01:59:07;;;;;;;;;0.33;0.33;;;;;25.27;45.84;98682.81;4938561;28;102575;-83
2021/07/10 02:01:35;;;;;;;;;1.00;0.67;;;;;25.29;45.93;98675.06;4945108;28;104205;-83
2021/07/10 02:04:02;;;;;;;;;0.00;0.00;;;;;25.27;45.45;98685.59;4946411;28;102501;-83
2021/07/10 02:06:29;;;;;;;;;0.00;0.00;;;;;25.28;45.66;98681.69;4941571;28;102809;-83
2021/07/10 02:08:56;;;;;;;;;0.00;0.00;;;;;25.24;45.44;98678.72;4936854;28;105950;-84
2021/07/10 02:11:23;;;;;;;;;1.00;1.00;;;;;25.22;45.85;98678.16;4946666;28;104214;-84
2021/07/10 02:13:51;;;;;;;;;0.00;0.00;;;;;25.25;45.63;98685.06;4935731;28;104406;-83
2021/07/10 02:16:18;;;;;;;;;0.33;0.33;;;;;25.20;45.72;98674.88;4941615;28;103627;-84
2021/07/10 02:18:46;;;;;;;;;2.33;0.00;;;;;25.20;45.49;98679.59;4945003;28;102631;-83
2021/07/10 02:21:13;;;;;;;;;0.00;0.00;;;;;25.20;45.50;98679.59;4930262;28;104235;-83
2021/07/10 02:23:40;;;;;;;;;1.00;0.33;;;;;25.20;45.72;98671.28;4926741;28;102499;-83
2021/07/10 02:26:07;;;;;;;;;0.33;0.00;;;;;25.15;45.74;98680.47;4939445;28;102649;-83
2021/07/10 02:28:34;;;;;;;;;0.00;0.00;;;;;25.12;45.65;98672.78;4933815;28;102556;-83
2021/07/10 02:31:01;;;;;;;;;0.33;0.33;;;;;25.10;45.66;98669.44;4939696;28;104259;-83
2021/07/10 02:33:28;;;;;;;;;1.00;1.00;;;;;25.11;45.80;98678.59;4947966;28;102414;-83
2021/07/10 02:35:55;;;;;;;;;0.67;0.00;;;;;25.08;45.45;98681.94;4938603;28;105878;-83
2021/07/10 02:38:23;;;;;;;;;0.00;0.00;;;;;25.07;45.40;98677.53;4947340;28;102790;-83
2021/07/10 02:40:50;;;;;;;;;0.33;0.33;;;;;25.07;45.62;98683.88;4954237;28;104412;-83
2021/07/10 02:43:17;;;;;;;;;1.00;0.67;;;;;25.07;45.21;98678.34;4944184;28;102442;-83
2021/07/10 02:45:44;;;;;;;;;0.00;0.00;;;;;25.04;45.37;98678.09;4939869;28;102548;-83
2021/07/10 02:48:12;;;;;;;;;1.33;0.33;;;;;25.03;45.55;98682.00;4940056;28;102638;-83
2021/07/10 02:50:40;;;;;;;;;1.00;0.67;;;;;25.02;45.34;98675.63;4940777;28;104469;-83
2021/07/10 02:53:07;;;;;;;;;0.00;0.00;;;;;25.01;45.47;98679.50;4944420;28;103957;-83
2021/07/10 02:55:34;;;;;;;;;1.00;1.00;;;;;25.03;45.39;98682.00;4945526;28;103020;-83
2021/07/10 02:58:02;;;;;;;;;1.00;0.33;;;;;25.01;45.08;98685.06;4946838;28;102537;-83
2021/07/10 03:00:29;;;;;;;;;0.33;0.33;;;;;25.00;45.50;98685.34;4919046;28;104118;-83
2021/07/10 03:02:56;;;;;;;;;1.00;1.00;;;;;24.99;45.11;98678.97;4944147;28;102351;-83
2021/07/10 03:05:24;;;;;;;;;0.00;0.00;;;;;24.98;45.03;98679.28;4941355;28;102414;-83
2021/07/10 03:07:51;;;;;;;;;0.00;0.00;;;;;24.95;45.29;98696.47;4944536;28;105059;-83
2021/07/10 03:10:20;;;;;;;;;1.00;0.00;;;;;24.94;45.15;98692.06;4924372;28;104081;-83
2021/07/10 03:12:48;;;;;;;;;1.00;1.00;;;;;24.93;45.17;98707.00;4945700;28;102559;-83
2021/07/10 03:15:15;;;;;;;;;0.00;0.00;;;;;24.90;45.29;98705.66;4929522;28;102497;-83
2021/07/10 03:17:43;;;;;;;;;1.00;1.00;;;;;24.92;45.20;98705.34;4943911;28;102190;-83
2021/07/10 03:20:11;;;;;;;;;1.00;1.00;;;;;24.87;44.93;98707.03;4940776;28;104062;-83
2021/07/10 03:22:38;;;;;;;;;1.33;1.33;;;;;24.87;45.03;98712.56;4936126;28;102452;-83
2021/07/10 03:25:07;;;;;;;;;2.33;0.00;;;;;24.88;45.00;98714.22;4936692;28;104103;-83
2021/07/10 03:27:34;;;;;;;;;1.67;1.67;;;;;24.87;45.20;98714.50;4939086;28;102606;-83
2021/07/10 03:30:04;;;;;;;;;0.33;0.33;;;;;24.84;44.97;98707.59;4938585;28;104210;-83
2021/07/10 03:32:31;;;;;;;;;2.00;1.00;;;;;24.82;45.34;98720.88;4936435;28;104545;-83
2021/07/10 03:34:58;;;;;;;;;0.33;0.33;;;;;24.81;45.00;98723.97;4941814;28;102541;-83
2021/07/10 03:37:25;;;;;;;;;1.00;1.00;;;;;24.78;45.10;98716.22;4937401;28;102604;-83
2021/07/10 03:39:52;;;;;;;;;1.00;1.00;;;;;24.78;44.96;98725.34;4929184;28;104438;-83
2021/07/10 03:42:19;;;;;;;;;0.00;0.00;;;;;24.79;45.30;98715.94;4946911;28;103302;-83
2021/07/10 03:44:47;;;;;;;;;1.00;1.00;;;;;24.81;44.93;98707.38;4940022;28;103394;-83
2021/07/10 03:47:14;;;;;;;;;0.00;0.00;;;;;24.80;45.23;98706.53;4935803;28;102824;-83
2021/07/10 03:49:41;;;;;;;;;1.00;1.00;;;;;24.77;44.92;98709.88;4939905;28;104086;-83
2021/07/10 03:52:09;;;;;;;;;0.00;0.00;;;;;24.77;44.90;98717.34;4937687;28;102454;-83
2021/07/10 03:54:36;;;;;;;;;0.67;0.67;;;;;24.77;45.13;98712.63;4937635;28;102336;-83
2021/07/10 03:57:03;;;;;;;;;0.00;0.00;;;;;24.75;44.89;98719.56;4946516;28;102349;-83
2021/07/10 03:59:30;;;;;;;;;1.00;1.00;;;;;24.72;45.20;98715.44;4940391;28;104251;-83
2021/07/10 04:01:57;;;;;;;;;0.00;0.00;;;;;24.72;45.22;98709.91;4938507;28;103764;-83
2021/07/10 04:04:25;;;;;;;;;0.33;0.33;;;;;24.71;45.08;98710.22;4942416;28;102374;-84
2021/07/10 04:06:53;;;;;;;;;0.33;0.33;;;;;24.70;44.95;98706.63;4937294;28;105211;-83
2021/07/10 04:09:20;;;;;;;;;1.00;1.00;;;;;24.71;45.21;98713.81;4933934;28;104059;-84
2021/07/10 04:11:47;;;;;;;;;0.67;0.67;;;;;24.69;45.24;98707.72;4942338;28;102552;-83
2021/07/10 04:14:14;;;;;;;;;0.33;0.33;;;;;24.71;45.21;98707.44;4934471;28;102096;-83
2021/07/10 04:16:41;;;;;;;;;0.00;0.00;;;;;24.71;44.96;98705.50;4935373;28;102428;-83
2021/07/10 04:19:08;;;;;;;;;0.00;0.00;;;;;24.70;45.00;98712.16;4944810;28;104269;-83
2021/07/10 04:21:35;;;;;;;;;1.00;1.00;;;;;24.68;45.39;98706.06;4933564;28;102581;-83
2021/07/10 04:24:03;;;;;;;;;0.00;0.00;;;;;24.69;45.30;98707.72;4938123;28;103668;-83
2021/07/10 04:26:30;;;;;;;;;0.00;0.00;;;;;24.70;45.04;98709.38;4940223;28;102754;-83
2021/07/10 04:28:57;;;;;;;;;1.00;1.00;;;;;24.71;45.44;98707.44;4947583;28;108736;-84
2021/07/10 04:31:24;;;;;;;;;2.00;1.00;;;;;24.73;44.92;98706.03;4932171;28;102840;-83
2021/07/10 04:33:52;;;;;;;;;1.67;1.33;;;;;24.74;44.95;98707.69;4940167;28;102218;-84
2021/07/10 04:36:19;;;;;;;;;1.33;1.33;;;;;24.72;45.28;98704.38;4938565;28;102191;-83
2021/07/10 04:38:46;;;;;;;;;1.00;1.00;;;;;24.71;45.42;98699.16;4937112;28;103849;-83
2021/07/10 04:41:14;;;;;;;;;0.33;0.00;;;;;24.69;45.13;98704.97;4941030;28;103487;-83
2021/07/10 04:43:41;;;;;;;;;0.67;0.33;;;;;24.65;45.21;98706.66;4936661;28;102805;-83
2021/07/10 04:46:09;;;;;;;;;0.00;0.00;;;;;24.65;45.26;98700.31;4934546;28;102715;-83
2021/07/10 04:48:36;;;;;;;;;1.00;1.00;;;;;24.63;45.18;98702.56;4948143;28;104113;-83
2021/07/10 04:51:03;;;;;;;;;0.67;0.00;;;;;24.64;45.35;98712.47;4950021;28;110478;-83
2021/07/10 04:53:30;;;;;;;;;1.00;1.00;;;;;24.62;45.44;98701.72;4934620;28;102964;-84
2021/07/10 04:55:57;;;;;;;;;1.00;1.00;;;;;24.63;45.53;98710.84;4940051;28;102847;-84
2021/07/10 04:58:25;;;;;;;;;2.00;1.00;;;;;24.62;45.35;98704.50;4948048;28;104248;-83
2021/07/10 05:00:52;;;;;;;;;2.00;1.00;;;;;24.62;45.59;98710.03;4937981;28;102790;-83
2021/07/10 05:03:19;;;;;;;;;0.00;0.00;;;;;24.65;45.14;98714.13;4935602;28;102703;-84
2021/07/10 05:05:46;;;;;;;;;0.33;0.33;;;;;24.64;45.61;98715.25;4956852;28;102667;-83
2021/07/10 05:08:13;;;;;;;;;2.00;2.00;;;;;24.62;45.30;98718.31;4933008;28;104119;-83
2021/07/10 05:10:40;;;;;;;;;0.33;0.33;;;;;24.65;45.73;98719.66;4936390;28;102599;-83
2021/07/10 05:13:09;;;;;;;;;1.67;1.00;;;;;24.64;45.42;98729.06;4947995;28;104692;-83
2021/07/10 05:15:36;;;;;;;;;1.00;1.00;;;;;24.63;45.33;98739.28;4936029;28;102637;-83
2021/07/10 05:18:04;;;;;;;;;1.00;1.00;;;;;24.62;45.65;98731.31;4935358;28;104289;-83
2021/07/10 05:20:32;;;;;;;;;1.00;1.00;;;;;24.61;45.58;98738.78;4931176;28;102474;-84
2021/07/10 05:22:59;;;;;;;;;1.00;0.33;;;;;24.62;45.42;98740.44;4937573;28;103574;-84
2021/07/10 05:25:26;;;;;;;;;1.00;1.00;;;;;24.64;45.17;98740.97;4934786;28;103624;-84
2021/07/10 05:27:53;;;;;;;;;1.00;1.00;;;;;24.64;45.80;98746.50;4941539;28;104230;-84
2021/07/10 05:30:20;;;;;;;;;1.00;0.00;;;;;24.65;45.66;98741.78;4935821;28;102596;-83
2021/07/10 05:32:47;;;;;;;;;1.00;1.00;;;;;24.65;45.70;98744.56;4936628;28;102474;-83
2021/07/10 05:35:18;;;;;;;;;0.00;0.00;;;;;24.65;45.68;98748.16;4940153;28;102717;-83
2021/07/10 05:37:46;;;;;;;;;0.33;0.33;;;;;24.65;45.87;98744.56;4939622;28;103550;-83
2021/07/10 05:40:14;;;;;;;;;1.00;1.00;;;;;24.66;45.76;98746.22;4936065;28;112136;-83
2021/07/10 05:42:41;;;;;;;;;1.00;1.00;;;;;24.67;45.96;98751.47;4948449;28;102555;-83
2021/07/10 05:45:09;;;;;;;;;0.33;0.33;;;;;24.68;45.63;98747.56;4936557;28;102726;-83
2021/07/10 05:47:36;;;;;;;;;0.00;0.00;;;;;24.68;45.93;98746.72;4934995;28;103812;-84
2021/07/10 05:50:03;;;;;;;;;2.00;0.00;;;;;24.69;45.99;98749.22;4938197;28;102667;-83
2021/07/10 05:52:30;;;;;;;;;1.00;0.00;;;;;24.68;45.82;98746.72;4941872;28;102736;-83
2021/07/10 05:54:57;;;;;;;;;1.33;0.67;;;;;24.69;45.79;98745.63;4937888;28;102852;-83
2021/07/10 05:57:25;;;;;;;;;0.00;0.00;;;;;24.70;45.77;98748.09;4941682;28;104408;-83
2021/07/10 05:59:52;;;;;;;;;0.67;0.67;;;;;24.72;45.86;98747.81;4937467;28;102316;-84
2021/07/10 06:02:19;;;;;;;;;0.00;0.00;;;;;24.71;45.78;98755.28;4931371;28;103234;-84
2021/07/10 06:04:46;;;;;;;;;0.33;0.33;;;;;24.74;45.66;98764.94;4943011;28;102519;-83
2021/07/10 06:07:13;;;;;;;;;0.33;0.33;;;;;24.73;45.70;98766.88;4935977;28;104442;-83
2021/07/10 06:09:40;;;;;;;;;0.00;0.00;;;;;24.75;45.97;98766.59;4934339;28;102862;-83
2021/07/10 06:12:08;;;;;;;;;1.00;1.00;;;;;24.73;45.79;98763.28;4948745;28;102325;-83
2021/07/10 06:14:35;;;;;;;;;0.00;0.00;;;;;24.76;45.67;98766.31;4941159;28;105554;-83
2021/07/10 06:17:02;;;;;;;;;0.00;0.00;;;;;24.75;45.90;98769.38;4936970;28;108880;-83
2021/07/10 06:19:30;;;;;;;;;0.00;0.00;;;;;24.77;45.91;98767.13;4942804;28;107466;-83
2021/07/10 06:21:58;;;;;;;;;0.00;0.00;;;;;24.76;45.62;98774.63;4946320;28;102236;-83
2021/07/10 06:24:26;;;;;;;;;0.00;0.00;;;;;24.78;45.97;98772.38;4940069;28;102712;-83
2021/07/10 06:26:54;;;;;;;;;1.00;1.00;;;;;24.78;45.90;98786.19;4943217;28;104608;-83
2021/07/10 06:29:21;;;;;;;;;0.00;0.00;;;;;24.80;45.88;98789.53;4938993;28;102597;-83
2021/07/10 06:31:48;;;;;;;;;1.67;1.00;;;;;24.80;45.95;98783.16;4929350;28;103558;-83
2021/07/10 06:34:16;;;;;;;;;0.00;0.00;;;;;24.79;46.04;98773.19;4923669;28;102783;-83
2021/07/10 06:36:43;;;;;;;;;0.33;0.33;;;;;24.78;45.83;98788.97;4930683;28;104062;-83
2021/07/10 06:39:11;;;;;;;;;0.00;0.00;;;;;24.79;45.88;98790.63;4949073;28;102688;-83
2021/07/10 06:41:38;;;;;;;;;0.00;0.00;;;;;24.80;45.71;98794.22;4945159;28;102849;-83
2021/07/10 06:44:05;;;;;;;;;1.00;1.00;;;;;24.78;45.87;98793.66;4955707;28;104428;-83
2021/07/10 06:46:33;;;;;;;;;0.67;0.67;;;;;24.77;45.89;98787.31;4939352;28;107312;-83
2021/07/10 06:49:00;;;;;;;;;0.00;0.00;;;;;24.80;45.62;98780.38;4945182;28;102616;-83
2021/07/10 06:51:28;;;;;;;;;0.00;0.00;;;;;24.80;45.67;98781.22;4939480;28;103517;-83
2021/07/10 06:53:55;;;;;;;;;0.00;0.00;;;;;24.82;45.83;98783.69;4936331;28;102779;-83
2021/07/10 06:56:22;;;;;;;;;0.00;0.00;;;;;24.80;45.88;98783.97;4940228;28;104387;-83
2021/07/10 06:58:49;;;;;;;;;0.00;0.00;;;;;24.81;45.67;98773.75;4933409;28;102355;-83
2021/07/10 07:01:16;;;;;;;;;0.67;0.67;;;;;24.82;45.77;98776.22;4934303;28;102700;-83
2021/07/10 07:03:44;;;;;;;;;0.00;0.00;;;;;24.83;45.81;98780.63;4946191;28;102202;-83
2021/07/10 07:06:11;;;;;;;;;0.00;0.00;;;;;24.83;45.51;98771.50;4941190;28;104574;-83
2021/07/10 07:08:38;;;;;;;;;0.00;0.00;;;;;24.85;45.98;98781.19;4933372;28;102690;-83
2021/07/10 07:11:05;;;;;;;;;0.00;0.00;;;;;24.88;45.56;98775.09;4934193;28;102433;-84
2021/07/10 07:13:32;;;;;;;;;0.33;0.00;;;;;24.92;45.39;98769.78;4942293;28;102298;-83
2021/07/10 07:16:00;;;;;;;;;0.00;0.00;;;;;24.94;45.53;98780.59;4922172;28;103473;-84
2021/07/10 07:18:27;;;;;;;;;0.00;0.00;;;;;24.95;45.38;98773.94;4936556;28;102588;-83
2021/07/10 07:21:04;;;;;;;;;0.00;0.00;;;;;24.97;45.56;98771.69;4938826;28;102617;-83
2021/07/10 07:23:31;;;;;;;;;0.33;0.33;;;;;24.99;45.66;98780.53;4939409;28;103117;-83
2021/07/10 07:25:58;;;;;;;;;0.67;0.00;;;;;25.00;45.30;98773.88;4933997;28;104758;-83
2021/07/10 07:28:25;;;;;;;;;0.00;0.00;;;;;24.98;45.58;98773.34;4936966;28;102585;-83
2021/07/10 07:30:54;;;;;;;;;1.00;1.00;;;;;24.99;45.33;98775.00;4933272;28;102489;-83
2021/07/10 07:33:21;;;;;;;;;0.00;0.00;;;;;25.01;45.54;98772.75;4935065;28;102710;-83
2021/07/10 07:35:48;;;;;;;;;0.00;0.00;;;;;25.03;45.52;98771.38;4947981;28;104094;-83
2021/07/10 07:38:15;;;;;;;;;0.00;0.00;;;;;25.04;45.45;98772.16;4939551;28;102530;-83
2021/07/10 07:40:42;;;;;;;;;0.00;0.00;;;;;25.05;45.33;98776.59;4930927;28;102396;-83
2021/07/10 07:43:09;;;;;;;;;0.00;0.00;;;;;25.06;45.35;98781.84;4936203;28;102651;-83
2021/07/10 07:45:37;;;;;;;;;0.00;0.00;;;;;25.08;45.42;98767.72;4936451;28;104300;-83
2021/07/10 07:48:04;;;;;;;;;0.67;0.33;;;;;25.09;45.61;98774.91;4939207;28;102450;-83
2021/07/10 07:50:32;;;;;;;;;1.00;0.00;;;;;25.11;45.21;98770.75;4948191;28;105680;-84
2021/07/10 07:52:59;;;;;;;;;0.33;0.33;;;;;25.12;45.40;98777.09;4951805;28;102581;-83
2021/07/10 07:55:28;;;;;;;;;0.00;0.00;;;;;25.13;45.20;98776.78;4934057;28;104456;-83
2021/07/10 07:57:56;;;;;;;;;0.33;0.33;;;;;25.13;45.39;98776.78;4923625;28;102057;-83
2021/07/10 08:00:23;;;;;;;;;0.00;0.00;;;;;25.14;45.28;98772.06;4926680;28;102637;-83
2021/07/10 08:02:53;;;;;;;;;0.00;0.00;;;;;25.14;45.34;98772.06;4937355;28;102172;-83
2021/07/10 08:05:20;;;;;;;;;0.00;0.00;;;;;25.14;45.39;98772.91;4942286;28;104116;-83
2021/07/10 08:07:47;;;;;;;;;1.00;0.00;;;;;25.17;45.67;98765.97;4947263;28;102674;-83
2021/07/10 08:10:15;;;;;;;;;0.00;0.00;;;;;25.18;45.43;98764.84;4942431;28;102686;-83
2021/07/10 08:12:45;;;;;;;;;0.00;0.00;;;;;25.18;45.25;98764.84;4944683;28;103581;-84
2021/07/10 08:15:14;;;;;;;;;0.00;0.00;;;;;25.19;45.33;98763.72;4938464;28;104922;-83
2021/07/10 08:17:42;;;;;;;;;0.00;0.00;;;;;25.22;45.55;98776.97;4938527;28;102447;-83
2021/07/10 08:20:10;;;;;;;;;0.00;0.00;;;;;25.21;45.49;98775.34;4926287;28;103921;-83
2021/07/10 08:22:38;;;;;;;;;1.00;1.00;;;;;25.22;45.56;98779.75;4941044;28;102484;-82
2021/07/10 08:25:06;;;;;;;;;0.00;0.00;;;;;25.23;45.48;98770.31;4949891;28;104178;-83
2021/07/10 08:27:35;;;;;;;;;0.00;0.00;;;;;25.25;45.56;98779.19;4939470;28;102483;-83
2021/07/10 08:30:04;;;;;;;;;0.00;0.00;;;;;25.25;45.36;98790.25;4938589;28;102620;-83
2021/07/10 08:32:31;;;;;;;;;0.00;0.00;;;;;25.26;45.36;98780.84;4946127;28;102165;-83
2021/07/10 08:34:59;;;;;;;;;0.67;0.00;;;;;25.27;45.35;98782.47;4937749;28;104262;-83
2021/07/10 08:37:26;;;;;;;;;0.00;0.00;;;;;25.27;45.39;98776.94;4933702;28;102391;-83
2021/07/10 08:39:53;;;;;;;;;0.00;0.00;;;;;25.28;45.46;98775.81;4951163;28;102369;-83
2021/07/10 08:42:20;;;;;;;;;0.00;0.00;;;;;25.30;45.64;98776.38;4933900;28;102264;-83
2021/07/10 08:44:50;;;;;;;;;0.00;0.00;;;;;25.29;45.77;98781.06;4936467;28;104106;-83
2021/07/10 08:47:17;;;;;;;;;0.00;0.00;;;;;25.30;45.61;98787.44;4945542;28;102352;-84
2021/07/10 08:49:45;;;;;;;;;0.00;0.00;;;;;25.31;45.37;98783.53;4936256;28;102318;-83
2021/07/10 08:52:12;;;;;;;;;0.00;0.00;;;;;25.30;45.74;98779.97;4937810;28;102594;-83
2021/07/10 08:54:39;;;;;;;;;0.00;0.00;;;;;25.31;45.54;98781.59;4956970;28;104262;-83
2021/07/10 08:57:07;;;;;;;;;1.00;0.00;;;;;25.32;45.76;98785.19;4940882;28;102486;-83
2021/07/10 08:59:36;;;;;;;;;0.00;0.00;;;;;25.34;45.56;98788.50;4938802;28;103026;-84
2021/07/10 09:02:03;;;;;;;;;1.00;1.00;;;;;25.35;45.66;98792.09;4896323;28;103780;-83
2021/07/10 09:04:31;;;;;;;;;0.00;0.00;;;;;25.35;45.74;98779.09;4940343;28;104213;-83
2021/07/10 09:06:58;;;;;;;;;0.00;0.00;;;;;25.37;45.65;98782.38;4941557;28;103005;-83
2021/07/10 09:09:42;;;;;;;;;0.00;0.00;;;;;25.38;45.75;98783.19;4941044;28;103925;-84
2021/07/10 09:12:10;;;;;;;;;0.00;0.00;;;;;25.39;45.77;98782.91;4948793;28;102257;-83
2021/07/10 09:14:37;;;;;;;;;0.00;0.00;;;;;25.40;45.71;98780.97;4927633;28;109076;-83
2021/07/10 09:17:18;;;;;;;;;0.00;0.00;;;;;25.41;45.89;98783.44;4923860;28;102456;-84
2021/07/10 09:19:45;;;;;;;;;0.00;0.00;;;;;25.42;45.85;98775.94;4875844;28;104522;-83
2021/07/10 09:22:23;;;;;;;;;0.00;0.00;;;;;25.41;45.92;98777.91;4927999;28;102160;-83
2021/07/10 09:24:50;;;;;;;;;0.00;0.00;;;;;25.43;45.95;98780.38;4937164;28;104323;-83
2021/07/10 09:27:18;;;;;;;;;0.00;0.00;;;;;25.44;45.86;98782.03;4932265;28;102888;-83
2021/07/10 09:29:46;;;;;;;;;0.00;0.00;;;;;25.44;45.83;98771.75;4933033;28;109602;-83
2021/07/10 09:32:19;;;;;;;;;0.00;0.00;;;;;25.45;45.96;98773.41;4934532;28;102744;-83
2021/07/10 09:34:57;;;;;;;;;0.67;0.67;;;;;25.45;45.88;98770.66;4954631;28;104236;-83
2021/07/10 09:37:27;;;;;;;;;0.67;0.67;;;;;25.45;45.94;98781.72;4936379;28;103679;-83
2021/07/10 09:40:10;;;;;;;;;0.00;0.00;;;;;25.48;46.03;98786.69;4936029;28;104621;-83
2021/07/10 09:42:39;;;;;;;;;0.00;0.00;;;;;25.48;45.85;98777.56;4948899;28;102637;-83
2021/07/10 09:45:08;;;;;;;;;0.00;0.00;;;;;25.49;46.00;98780.00;4933714;28;111109;-83
2021/07/10 09:47:36;;;;;;;;;0.00;0.00;;;;;25.50;46.04;98776.13;4933764;28;102840;-83
2021/07/10 09:50:06;;;;;;;;;0.00;0.00;;;;;25.51;45.96;98777.78;4934217;28;102620;-83
2021/07/10 09:52:35;;;;;;;;;0.00;0.00;;;;;25.52;45.80;98790.53;4937295;28;102602;-83
2021/07/10 09:55:07;;;;;;;;;0.33;0.33;;;;;25.52;45.97;98790.53;4938682;28;104286;-83
2021/07/10 09:57:36;;;;;;;;;0.00;0.00;;;;;25.53;46.19;98785.81;4931762;28;102381;-83
2021/07/10 10:00:12;;;;;;;;;0.00;0.00;;;;;25.51;46.16;98788.03;4943539;28;102363;-83
2021/07/10 10:02:57;;;;;;;;;0.00;0.00;;;;;25.53;46.12;98794.13;4950071;28;103293;-83
2021/07/10 10:05:29;;;;;;;;;0.33;0.00;;;;;25.52;45.94;98784.97;4867332;28;109304;-83
2021/07/10 10:07:59;;;;;;;;;0.00;0.00;;;;;25.52;45.93;98790.53;4936651;28;102498;-83
2021/07/10 10:10:33;;;;;;;;;0.00;0.00;;;;;25.55;46.03;98789.97;4932237;28;104508;-83
2021/07/10 10:13:09;;;;;;;;;0.00;0.00;;;;;25.56;46.19;98796.31;4934379;28;103098;-83
2021/07/10 10:15:38;;;;;;;;;0.33;0.33;;;;;25.58;46.25;98799.59;4948904;28;109308;-83
2021/07/10 10:18:05;;;;;;;;;0.67;0.67;;;;;25.59;45.99;98807.63;4946561;28;103277;-83
2021/07/10 10:20:33;;;;;;;;;0.00;0.00;;;;;25.58;46.07;98805.97;4928727;28;103345;-83
2021/07/10 10:23:05;;;;;;;;;0.00;0.00;;;;;25.59;46.18;98807.63;4934391;28;102349;-83
2021/07/10 10:25:33;;;;;;;;;0.00;0.00;;;;;25.59;46.08;98802.09;4936322;28;104075;-84
2021/07/10 10:28:02;;;;;;;;;0.00;0.00;;;;;25.59;45.96;98796.56;4935988;28;102648;-83
2021/07/10 10:30:29;;;;;;;;;0.00;0.00;;;;;25.60;46.20;98803.75;4918802;28;102278;-83
2021/07/10 10:32:56;;;;;;;;;0.00;0.00;;;;;25.61;46.00;98808.19;4943837;28;102679;-83
2021/07/10 10:35:24;;;;;;;;;0.00;0.00;;;;;25.60;46.32;98806.53;4936886;28;104264;-83
2021/07/10 10:37:51;;;;;;;;;0.00;0.00;;;;;25.61;46.21;98804.59;4941890;28;102218;-83
2021/07/10 10:40:22;;;;;;;;;0.00;0.00;;;;;25.60;46.17;98806.53;4949711;28;103355;-83
2021/07/10 10:42:55;;;;;;;;;0.00;0.00;;;;;25.61;46.23;98805.41;4933267;28;102578;-83
2021/07/10 10:45:28;;;;;;;;;0.67;0.33;;;;;25.64;46.36;98803.97;4936152;28;104144;-83
2021/07/10 10:47:56;;;;;;;;;0.00;0.00;;;;;25.66;46.10;98796.22;4945589;28;102628;-83
2021/07/10 10:50:26;;;;;;;;;0.00;0.00;;;;;25.65;46.33;98794.56;4941758;28;102431;-83
2021/07/10 10:52:54;;;;;;;;;0.00;0.00;;;;;25.66;46.37;98802.59;4935778;28;102686;-83
2021/07/10 10:55:28;;;;;;;;;0.00;0.00;;;;;25.67;46.27;98798.69;4951144;28;104105;-83
2021/07/10 10:58:02;;;;;;;;;1.00;0.00;;;;;25.68;46.34;98805.88;4935528;28;102373;-83
2021/07/10 11:00:33;;;;;;;;;0.00;0.00;;;;;25.70;46.13;98794.50;4939530;28;103353;-84
2021/07/10 11:03:25;;;;;;;;;0.00;0.00;;;;;25.69;46.20;98796.44;4944506;28;102576;-83
2021/07/10 11:05:54;;;;;;;;;1.00;0.00;;;;;25.69;46.41;98790.09;4870534;28;108952;-83
2021/07/10 11:08:26;;;;;;;;;0.00;0.00;;;;;25.71;46.10;98799.72;4944205;28;103303;-83
2021/07/10 11:10:53;;;;;;;;;0.00;0.00;;;;;25.72;46.33;98786.72;4928984;28;102659;-83
2021/07/10 11:13:33;;;;;;;;;0.00;0.00;;;;;25.73;46.20;98783.66;4944053;28;103418;-83
2021/07/10 11:16:15;;;;;;;;;0.00;0.00;;;;;25.73;46.29;98788.38;4950234;28;104209;-85
2021/07/10 11:19:08;;;;;;;;;0.00;0.00;;;;;25.74;46.34;98787.25;4931925;28;102146;-86
2021/07/10 11:21:38;;;;;;;;;1.00;1.00;;;;;25.75;46.15;98794.44;4878132;28;103580;-85
2021/07/10 11:24:20;;;;;;;;;0.00;0.00;;;;;25.76;46.31;98791.38;4944103;28;102392;-86
2021/07/10 11:26:53;;;;;;;;;1.00;0.00;;;;;25.76;46.30;98796.06;4892818;28;109446;-85
2021/07/10 11:29:23;;;;;;;;;0.00;0.00;;;;;25.74;46.14;98782.53;4929087;28;102727;-85